Time;durP1;ratioP1;P1;durP2;ratioP2;P2;SDS_P1;SDS_P2;PMS_P1;PMS_P2;Temp;Humidity;BMP_temperature;BMP_pressure;BME280_temperature;BME280_humidity;BME280_pressure;Samples;Min_cycle;Max_cycle;Signal;HPM_P1;HPM_P2
2022/04/05 00:02:08;;;;;;;7.20;5.40;;;;;;;6.25;76.38;97896.53;5016681;28;20065;-59
2022/04/05 00:04:34;;;;;;;6.95;5.57;;;;;;;6.19;76.80;97907.25;5024172;28;20033;-59
2022/04/05 00:06:59;;;;;;;11.65;7.10;;;;;;;6.17;76.94;97904.69;5027487;28;20038;-58
2022/04/05 00:09:25;;;;;;;12.48;7.50;;;;;;;6.13;77.27;97914.41;5020831;28;20092;-58
2022/04/05 00:11:50;;;;;;;13.82;6.97;;;;;;;6.14;76.94;97912.63;5021981;28;20100;-57
2022/04/05 00:14:16;;;;;;;10.57;6.30;;;;;;;6.05;77.47;97924.31;5033476;28;20045;-59
2022/04/05 00:16:41;;;;;;;8.55;5.63;;;;;;;6.05;77.67;97919.09;5019003;28;20054;-58
2022/04/05 00:19:06;;;;;;;7.32;5.00;;;;;;;6.08;77.35;97915.50;5024885;28;20123;-57
2022/04/05 00:21:32;;;;;;;6.15;4.50;;;;;;;6.02;77.84;97920.97;5028538;28;20135;-59
2022/04/05 00:23:57;;;;;;;6.22;4.97;;;;;;;5.97;78.27;97923.78;5016498;28;20037;-59
2022/04/05 00:26:23;;;;;;;6.28;4.55;;;;;;;5.91;78.87;97929.22;5028318;28;20045;-58
2022/04/05 00:28:48;;;;;;;5.18;4.13;;;;;;;5.89;79.15;97920.63;5019036;28;20038;-59
2022/04/05 00:31:14;;;;;;;6.13;3.85;;;;;;;5.95;78.97;97919.56;5016072;28;20125;-59
2022/04/05 00:33:40;;;;;;;5.57;3.83;;;;;;;5.91;79.61;97924.03;5017509;28;20397;-58
2022/04/05 00:36:05;;;;;;;6.55;3.75;;;;;;;6.06;78.39;97918.16;5014204;28;20061;-58
2022/04/05 00:38:31;;;;;;;5.30;3.90;;;;;;;6.12;78.34;97923.13;5018251;28;20072;-59
2022/04/05 00:40:56;;;;;;;6.85;3.90;;;;;;;6.13;78.02;97913.56;5033443;28;20034;-59
2022/04/05 00:43:22;;;;;;;4.78;3.50;;;;;;;6.11;78.36;97921.44;5033490;28;20068;-58
2022/04/05 00:45:47;;;;;;;6.68;3.92;;;;;;;6.02;79.27;97915.75;5025199;28;20092;-59
2022/04/05 00:48:28;;;;;;;4.53;3.55;;;;;;;6.08;78.76;97912.91;5021503;28;20067;-58
2022/04/05 00:50:53;;;;;;;6.82;3.78;;;;;;;6.04;78.82;97912.19;5022973;28;20041;-58
2022/04/05 00:53:21;;;;;;;3.75;3.08;;;;;;;6.04;78.44;97908.75;5029744;28;20045;-59
2022/04/05 00:55:49;;;;;;;4.82;2.90;;;;;;;6.00;78.39;97912.38;5044028;28;20087;-59
2022/04/05 00:58:16;;;;;;;4.70;3.10;;;;;;;6.01;78.28;97906.25;5015788;28;20045;-58
2022/04/05 01:00:42;;;;;;;4.60;3.38;;;;;;;5.95;78.44;97909.97;5027990;28;20112;-59
2022/04/05 01:03:08;;;;;;;6.07;2.78;;;;;;;5.84;79.09;97912.16;5014777;28;20121;-58
2022/04/05 01:05:35;;;;;;;4.60;2.60;;;;;;;5.92;78.36;97915.31;5014790;28;20061;-58
2022/04/05 01:08:03;;;;;;;6.50;3.28;;;;;;;5.95;78.10;97925.63;5019774;28;20026;-58
2022/04/05 01:10:29;;;;;;;5.30;2.55;;;;;;;5.78;77.82;97933.25;5025215;28;20036;-59
2022/04/05 01:12:55;;;;;;;6.20;2.33;;;;;;;6.02;76.83;97921.81;5027135;28;20041;-58
2022/04/05 01:15:20;;;;;;;5.13;2.33;;;;;;;6.13;76.13;97927.44;5016087;28;20492;-58
2022/04/05 01:17:46;;;;;;;7.10;2.72;;;;;;;6.07;76.27;97914.66;5023839;28;20037;-59
2022/04/05 01:20:11;;;;;;;4.90;2.17;;;;;;;6.13;75.13;97910.94;5030300;28;20591;-58
2022/04/05 01:22:46;;;;;;;7.55;2.08;;;;;;;6.16;74.34;97922.09;5005010;28;20042;-58
2022/04/05 01:25:16;;;;;;;6.53;1.80;;;;;;;6.11;73.14;97916.25;5018276;28;20121;-59
2022/04/05 01:27:41;;;;;;;6.60;2.00;;;;;;;6.11;72.59;97924.06;5032068;28;20036;-59
2022/04/05 01:30:07;;;;;;;9.35;1.92;;;;;;;6.15;70.83;97917.81;5025307;28;20033;-58
2022/04/05 01:32:32;;;;;;;9.27;1.77;;;;;;;6.11;69.90;97915.41;5024752;28;20065;-59
2022/04/05 01:34:58;;;;;;;12.45;1.95;;;;;;;6.11;69.03;97926.66;5020784;28;20393;-59
2022/04/05 01:37:23;;;;;;;5.55;1.30;;;;;;;6.35;68.19;97945.63;5023568;28;20046;-58
2022/04/05 01:39:49;;;;;;;7.47;1.55;;;;;;;6.33;67.86;97942.22;5020434;28;20125;-58
2022/04/05 01:42:14;;;;;;;9.13;1.52;;;;;;;6.14;66.74;97921.31;5017253;28;20477;-59
2022/04/05 01:44:42;;;;;;;11.75;1.73;;;;;;;6.09;66.26;97933.69;5014372;28;20065;-59
2022/04/05 01:47:10;;;;;;;10.80;1.58;;;;;;;6.10;65.31;97937.13;5023740;28;20037;-58
2022/04/05 01:49:37;;;;;;;8.23;1.80;;;;;;;6.13;64.42;97911.78;5016452;28;20408;-59
2022/04/05 01:52:03;;;;;;;10.32;1.70;;;;;;;6.10;63.93;97930.19;5017874;28;20470;-59
2022/04/05 01:54:28;;;;;;;10.48;1.80;;;;;;;6.08;64.39;97950.25;5010537;28;20084;-59
2022/04/05 01:56:54;;;;;;;12.98;2.10;;;;;;;6.10;64.38;97939.75;5018249;28;20046;-58
2022/04/05 01:59:28;;;;;;;8.45;1.17;;;;;;;6.28;64.10;97943.34;5023804;28;20034;-59
2022/04/05 02:01:54;;;;;;;12.27;1.85;;;;;;;6.05;64.09;97952.13;5026938;28;20488;-58
2022/04/05 02:04:19;;;;;;;6.13;1.38;;;;;;;6.10;64.15;97947.56;5028000;28;20047;-59
2022/04/05 02:06:46;;;;;;;11.85;1.70;;;;;;;5.97;64.63;97952.44;5017332;28;20045;-58
2022/04/05 02:09:15;;;;;;;9.10;1.85;;;;;;;5.97;64.80;97954.22;5023183;28;20041;-59
2022/04/05 02:11:43;;;;;;;9.10;1.58;;;;;;;6.08;64.79;97960.69;5030940;28;20037;-59
2022/04/05 02:14:10;;;;;;;8.07;1.42;;;;;;;5.92;66.91;97968.28;5029224;28;20080;-59
2022/04/05 02:16:35;;;;;;;11.32;1.65;;;;;;;5.89;67.19;97963.16;5018278;28;20038;-59
2022/04/05 02:19:01;;;;;;;9.65;1.80;;;;;;;5.79;67.49;97955.81;5027531;28;20040;-59
2022/04/05 02:21:26;;;;;;;9.98;1.50;;;;;;;5.72;67.50;97959.56;5024984;28;20030;-59
2022/04/05 02:23:52;;;;;;;12.13;1.75;;;;;;;5.60;67.78;97959.13;5025446;28;20392;-59
2022/04/05 02:26:17;;;;;;;11.60;1.90;;;;;;;5.54;67.40;97958.53;5024090;28;20528;-58
2022/04/05 02:28:43;;;;;;;8.57;1.90;;;;;;;5.68;66.71;97970.09;5025184;28;20139;-59
2022/04/05 02:31:09;;;;;;;6.95;1.35;;;;;;;5.52;66.46;97971.63;5020813;28;20441;-58
2022/04/05 02:33:34;;;;;;;9.52;1.73;;;;;;;5.66;66.07;97961.50;5028229;28;20037;-58
2022/04/05 02:36:00;;;;;;;11.27;1.30;;;;;;;5.67;65.24;97984.03;5017352;28;20388;-60
2022/04/05 02:38:26;;;;;;;9.15;1.58;;;;;;;5.85;65.18;97956.38;5020652;28;20129;-59
2022/04/05 02:40:52;;;;;;;12.93;1.63;;;;;;;5.76;64.32;97966.34;5031016;28;20040;-59
2022/04/05 02:43:18;;;;;;;7.22;1.42;;;;;;;5.69;64.35;97976.16;5032175;28;20124;-59
2022/04/05 02:45:43;;;;;;;14.07;1.63;;;;;;;5.65;64.47;97970.22;5029274;28;20108;-58
2022/04/05 02:48:09;;;;;;;12.68;1.77;;;;;;;5.68;64.92;97977.91;5020443;28;20465;-58
2022/04/05 02:50:35;;;;;;;10.73;2.00;;;;;;;5.60;66.38;97982.59;5014648;28;20048;-58
2022/04/05 02:53:00;;;;;;;12.18;1.65;;;;;;;5.42;68.22;98001.53;5018359;28;20453;-58
2022/04/05 02:55:26;;;;;;;9.45;1.48;;;;;;;5.26;68.64;97985.63;5025614;28;20076;-58
2022/04/05 02:57:52;;;;;;;9.70;1.45;;;;;;;5.41;68.04;97963.38;5020867;28;20377;-58
2022/04/05 03:00:17;;;;;;;7.40;1.48;;;;;;;5.48;67.46;97966.59;5021228;28;20030;-58
2022/04/05 03:02:44;;;;;;;11.23;1.58;;;;;;;5.56;66.66;97968.00;5035287;28;20045;-58
2022/04/05 03:05:11;;;;;;;7.43;1.25;;;;;;;5.69;65.98;97968.34;5032582;28;20474;-58
2022/04/05 03:07:41;;;;;;;9.10;1.38;;;;;;;5.74;64.52;97957.72;5022691;28;20440;-58
2022/04/05 03:10:10;;;;;;;9.25;1.67;;;;;;;5.83;64.53;97960.81;5031425;28;20060;-58
2022/04/05 03:12:37;;;;;;;10.07;1.83;;;;;;;5.82;64.51;97960.88;5026792;28;20040;-58
2022/04/05 03:15:03;;;;;;;12.20;1.40;;;;;;;5.92;64.50;97967.44;5035605;28;20039;-59
2022/04/05 03:17:29;;;;;;;10.52;1.83;;;;;;;5.99;64.63;97968.91;5028401;28;20033;-59
2022/04/05 03:19:54;;;;;;;12.80;2.05;;;;;;;6.10;64.55;97976.25;5033284;28;20060;-59
2022/04/05 03:22:20;;;;;;;12.82;2.10;;;;;;;6.12;65.02;97979.66;5016649;28;20073;-58
2022/04/05 03:24:46;;;;;;;9.88;1.67;;;;;;;6.08;65.33;97978.94;5026937;28;20474;-58
2022/04/05 03:27:12;;;;;;;9.75;1.58;;;;;;;6.05;66.01;97981.66;5037095;28;20505;-59
2022/04/05 03:29:38;;;;;;;9.35;1.85;;;;;;;5.93;65.93;97979.56;5033106;28;20034;-59
2022/04/05 03:32:04;;;;;;;13.75;2.08;;;;;;;6.00;66.11;97993.19;5021783;28;20476;-58
2022/04/05 03:34:30;;;;;;;9.63;1.60;;;;;;;5.85;66.77;98005.91;5055071;28;20062;-58
2022/04/05 03:36:56;;;;;;;8.40;1.67;;;;;;;5.69;67.17;97997.00;5054151;28;20033;-59
2022/04/05 03:39:21;;;;;;;8.25;1.80;;;;;;;5.81;67.15;97977.41;5026489;28;20547;-58
2022/04/05 03:41:47;;;;;;;8.60;1.38;;;;;;;5.61;67.88;97999.91;5038289;28;20362;-58
2022/04/05 03:44:12;;;;;;;8.82;1.60;;;;;;;5.70;67.79;98019.53;5033450;28;20695;-58
2022/04/05 03:46:38;;;;;;;10.00;1.70;;;;;;;5.47;69.28;97999.63;5026408;28;20041;-59
2022/04/05 03:49:04;;;;;;;11.57;2.00;;;;;;;5.46;69.32;98000.50;5033609;28;20044;-58
2022/04/05 03:51:30;;;;;;;15.15;1.70;;;;;;;5.61;68.88;97997.31;5035939;28;20033;-58
2022/04/05 03:53:57;;;;;;;8.55;1.77;;;;;;;5.71;69.00;98015.19;5036675;28;20045;-59
2022/04/05 03:56:23;;;;;;;8.25;1.80;;;;;;;5.78;68.60;98011.41;5053460;28;20088;-57
2022/04/05 03:58:49;;;;;;;8.50;1.60;;;;;;;5.72;69.14;98006.47;5038067;28;20029;-59
2022/04/05 04:01:15;;;;;;;9.10;2.03;;;;;;;5.78;69.12;98021.84;5035605;28;20037;-57
2022/04/05 04:03:40;;;;;;;11.18;2.10;;;;;;;5.72;69.67;98015.13;5034940;28;20049;-59
2022/04/05 04:06:06;;;;;;;13.45;2.08;;;;;;;5.78;69.59;98008.81;5031750;28;20152;-58
2022/04/05 04:08:32;;;;;;;13.50;1.45;;;;;;;5.62;70.48;98006.81;5025378;28;20046;-58
2022/04/05 04:10:58;;;;;;;12.68;2.40;;;;;;;5.72;70.47;98014.28;5015893;28;20030;-58
2022/04/05 04:13:23;;;;;;;11.15;2.05;;;;;;;5.44;72.24;98023.16;5016753;28;20559;-58
2022/04/05 04:15:49;;;;;;;10.45;1.83;;;;;;;5.42;72.69;98017.16;5014328;28;20041;-58
2022/04/05 04:18:14;;;;;;;10.30;1.90;;;;;;;5.28;73.69;98019.44;5029170;28;20037;-59
2022/04/05 04:20:42;;;;;;;9.30;1.80;;;;;;;5.42;73.23;98030.16;5016885;28;20042;-58
2022/04/05 04:23:10;;;;;;;13.63;2.15;;;;;;;5.42;73.63;98014.53;5020993;28;20074;-58
2022/04/05 04:25:40;;;;;;;11.68;2.33;;;;;;;5.50;73.38;98025.53;5035304;28;20038;-59
2022/04/05 04:28:06;;;;;;;10.38;2.05;;;;;;;5.52;72.97;98020.28;5034446;28;20481;-58
2022/04/05 04:30:39;;;;;;;9.75;2.13;;;;;;;5.49;73.74;98023.81;5033159;28;20040;-58
2022/04/05 04:33:05;;;;;;;10.82;2.00;;;;;;;5.42;73.88;98023.19;5035327;28;20465;-58
2022/04/05 04:35:31;;;;;;;7.95;1.85;;;;;;;5.58;73.16;98038.25;5029139;28;20042;-58
2022/04/05 04:37:58;;;;;;;9.23;1.77;;;;;;;5.61;73.34;98035.53;5025647;28;20030;-57
2022/04/05 04:40:25;;;;;;;14.45;2.05;;;;;;;5.39;74.08;98035.53;5041768;28;20436;-58
2022/04/05 04:42:50;;;;;;;7.97;2.15;;;;;;;5.35;74.30;98045.19;5034793;28;20388;-58
2022/04/05 04:45:16;;;;;;;9.05;1.90;;;;;;;5.44;73.90;98046.59;5032033;28;20030;-58
2022/04/05 04:47:41;;;;;;;10.07;2.10;;;;;;;5.56;73.51;98046.13;5029385;28;20494;-58
2022/04/05 04:50:08;;;;;;;9.75;3.15;;;;;;;5.53;73.79;98048.84;5018046;28;20485;-58
2022/04/05 04:52:34;;;;;;;14.88;2.42;;;;;;;5.63;73.32;98039.78;5018899;28;20026;-58
2022/04/05 04:55:00;;;;;;;9.48;2.15;;;;;;;5.58;73.54;98052.13;5030892;28;20025;-58
2022/04/05 04:57:25;;;;;;;9.93;2.58;;;;;;;5.50;73.83;98063.75;5028190;28;20041;-58
2022/04/05 04:59:52;;;;;;;7.45;1.75;;;;;;;5.52;73.66;98062.78;5024254;28;20029;-58
2022/04/05 05:02:18;;;;;;;8.43;1.92;;;;;;;5.48;74.10;98058.59;5021239;28;20065;-58
2022/04/05 05:04:43;;;;;;;8.35;1.88;;;;;;;5.57;73.85;98066.06;5030097;28;20108;-58
2022/04/05 05:07:09;;;;;;;6.60;1.60;;;;;;;5.71;73.17;98073.38;5024319;28;20370;-58
2022/04/05 05:09:34;;;;;;;9.02;1.88;;;;;;;5.71;73.13;98067.31;5033637;28;20080;-59
2022/04/05 05:12:00;;;;;;;9.73;1.83;;;;;;;5.73;72.72;98074.13;5031729;28;20537;-59
2022/04/05 05:14:27;;;;;;;11.23;1.65;;;;;;;5.81;72.59;98063.41;5032894;28;20045;-59
2022/04/05 05:16:53;;;;;;;11.18;2.05;;;;;;;5.65;73.63;98078.78;5032379;28;20037;-59
2022/04/05 05:19:19;;;;;;;7.07;2.03;;;;;;;5.67;73.31;98072.63;5017335;28;20065;-59
2022/04/05 05:21:45;;;;;;;12.63;2.30;;;;;;;5.75;73.41;98074.09;5025032;28;20045;-58
2022/04/05 05:24:10;;;;;;;9.90;2.40;;;;;;;5.64;73.94;98083.16;5015185;28;20038;-58
2022/04/05 05:26:36;;;;;;;9.23;2.03;;;;;;;5.67;73.83;98085.66;5022953;28;20159;-58
2022/04/05 05:29:01;;;;;;;9.20;2.15;;;;;;;5.65;73.72;98094.44;5022371;28;20037;-58
2022/04/05 05:31:26;;;;;;;8.55;2.00;;;;;;;5.58;74.04;98096.41;5030356;28;20042;-59
2022/04/05 05:33:52;;;;;;;13.02;2.95;;;;;;;5.39;75.24;98100.63;5033461;28;20427;-58
2022/04/05 05:36:17;;;;;;;8.15;2.25;;;;;;;5.24;76.20;98107.25;5028853;28;20116;-58
2022/04/05 05:38:43;;;;;;;7.18;1.83;;;;;;;5.35;75.37;98104.25;5030377;28;20473;-58
2022/04/05 05:41:08;;;;;;;11.15;2.50;;;;;;;5.49;75.40;98109.78;5021906;28;20029;-59
2022/04/05 05:43:34;;;;;;;7.95;1.85;;;;;;;5.46;75.85;98119.47;5016406;28;20053;-58
2022/04/05 05:46:03;;;;;;;9.85;2.35;;;;;;;5.52;75.57;98119.25;5020944;28;20444;-58
2022/04/05 05:48:29;;;;;;;10.27;2.10;;;;;;;5.54;75.71;98123.47;5025601;28;20135;-59
2022/04/05 05:50:55;;;;;;;13.48;2.38;;;;;;;5.33;76.66;98140.75;5020115;28;20038;-58
2022/04/05 05:53:21;;;;;;;9.35;2.50;;;;;;;5.21;78.22;98129.94;5030210;28;20044;-58
2022/04/05 05:55:48;;;;;;;11.70;2.60;;;;;;;5.27;78.13;98140.13;5024916;28;20071;-57
2022/04/05 05:58:14;;;;;;;10.90;2.50;;;;;;;5.14;79.07;98130.13;5029067;28;20034;-57
2022/04/05 06:00:39;;;;;;;12.35;2.38;;;;;;;5.15;78.67;98139.66;5021637;28;20464;-59
2022/04/05 06:03:05;;;;;;;9.60;2.25;;;;;;;5.35;78.46;98148.53;5024822;28;20037;-59
2022/04/05 06:05:31;;;;;;;7.90;1.80;;;;;;;5.16;78.90;98162.19;5026069;28;20033;-58
2022/04/05 06:07:57;;;;;;;8.23;1.80;;;;;;;5.31;78.64;98167.75;5024604;28;20049;-58
2022/04/05 06:10:23;;;;;;;7.00;1.92;;;;;;;5.25;79.11;98174.03;5032169;28;20029;-58
2022/04/05 06:12:50;;;;;;;9.38;2.13;;;;;;;5.22;79.42;98181.94;5024563;28;20076;-59
2022/04/05 06:15:17;;;;;;;5.65;2.30;;;;;;;5.27;79.23;98185.25;5025527;28;20045;-59
2022/04/05 06:17:45;;;;;;;11.23;2.85;;;;;;;5.22;79.53;98194.09;5021782;28;20072;-59
2022/04/05 06:20:12;;;;;;;11.77;2.63;;;;;;;5.05;79.93;98192.94;5017320;28;20029;-59
2022/04/05 06:22:42;;;;;;;13.73;2.30;;;;;;;4.97;80.74;98194.94;5024045;28;20043;-59
2022/04/05 06:25:09;;;;;;;7.18;2.67;;;;;;;5.13;80.55;98196.13;5022152;28;20120;-59
2022/04/05 06:27:36;;;;;;;8.98;2.55;;;;;;;5.25;80.22;98209.63;5016953;28;20443;-58
2022/04/05 06:30:02;;;;;;;6.85;2.05;;;;;;;5.31;79.29;98206.81;5019013;28;20041;-59
2022/04/05 06:32:28;;;;;;;7.78;2.28;;;;;;;5.34;79.41;98224.91;5020741;28;20381;-59
2022/04/05 06:34:53;;;;;;;5.50;1.58;;;;;;;5.31;78.18;98212.03;5026232;28;20498;-58
2022/04/05 06:37:19;;;;;;;9.43;1.98;;;;;;;5.14;78.41;98231.66;5036176;28;20029;-59
2022/04/05 06:39:44;;;;;;;7.80;1.88;;;;;;;5.31;78.39;98225.06;5030575;28;20123;-59
2022/04/05 06:42:10;;;;;;;8.07;1.70;;;;;;;5.29;78.05;98229.44;5029560;28;20037;-59
2022/04/05 06:44:35;;;;;;;5.88;1.80;;;;;;;5.31;77.83;98225.91;5027947;28;20477;-59
2022/04/05 06:47:00;;;;;;;6.40;1.92;;;;;;;5.27;77.63;98239.94;5023097;28;20046;-59
2022/04/05 06:49:26;;;;;;;5.57;1.27;;;;;;;5.37;76.94;98240.44;5029110;28;20064;-59
2022/04/05 06:51:51;;;;;;;4.35;1.67;;;;;;;5.42;77.27;98254.16;5028639;28;20041;-59
2022/04/05 06:54:16;;;;;;;3.20;1.40;;;;;;;5.50;76.16;98249.53;5037380;28;20041;-59
2022/04/05 06:56:42;;;;;;;6.22;1.30;;;;;;;5.44;76.27;98249.75;5023776;28;20034;-59
2022/04/05 06:59:07;;;;;;;4.63;1.30;;;;;;;5.53;76.22;98246.81;5024051;28;20470;-58
2022/04/05 07:01:33;;;;;;;4.05;1.05;;;;;;;5.79;75.15;98256.34;5037125;28;20033;-59
2022/04/05 07:03:59;;;;;;;5.75;1.38;;;;;;;5.78;74.42;98265.03;5036695;28;20037;-60
2022/04/05 07:06:25;;;;;;;4.85;1.30;;;;;;;5.69;74.47;98274.03;5034177;28;20040;-59
2022/04/05 07:08:50;;;;;;;3.58;1.60;;;;;;;5.95;73.63;98264.47;5036628;28;20037;-59
2022/04/05 07:11:16;;;;;;;5.10;1.80;;;;;;;5.75;73.83;98264.31;5036461;28;20496;-59
2022/04/05 07:13:42;;;;;;;5.22;1.38;;;;;;;5.76;73.52;98276.44;5036534;28;20033;-59
2022/04/05 07:16:08;;;;;;;5.38;1.92;;;;;;;5.70;73.07;98274.88;5030659;28;20045;-59
2022/04/05 07:18:33;;;;;;;8.27;2.38;;;;;;;5.98;72.44;98279.97;5025425;28;20107;-60
2022/04/05 07:20:59;;;;;;;6.97;1.77;;;;;;;6.25;71.69;98288.56;5032141;28;20038;-59
2022/04/05 07:23:25;;;;;;;5.72;1.48;;;;;;;6.33;71.13;98276.06;5020893;28;20041;-59
2022/04/05 07:25:51;;;;;;;6.50;1.67;;;;;;;6.68;69.81;98301.75;5039018;28;20036;-59
2022/04/05 07:28:16;;;;;;;5.93;1.30;;;;;;;6.73;69.25;98297.19;5029170;28;20037;-59
2022/04/05 07:30:42;;;;;;;6.53;1.65;;;;;;;6.81;69.47;98295.13;5021375;28;20034;-59
2022/04/05 07:33:08;;;;;;;4.65;1.50;;;;;;;6.91;68.83;98301.69;5035610;28;20117;-59
2022/04/05 07:35:34;;;;;;;3.90;1.40;;;;;;;6.93;69.07;98307.69;5019014;28;20120;-59
2022/04/05 07:37:59;;;;;;;5.55;1.90;;;;;;;6.88;69.06;98325.28;5031039;28;20095;-59
2022/04/05 07:40:27;;;;;;;9.77;3.05;;;;;;;6.75;69.68;98345.81;5034755;28;20037;-59
2022/04/05 07:42:52;;;;;;;4.60;2.15;;;;;;;6.11;72.06;98361.25;5035150;28;20075;-59
2022/04/05 07:45:18;;;;;;;6.57;1.52;;;;;;;5.09;75.24;98368.09;5034161;28;20045;-60
2022/04/05 07:47:44;;;;;;;4.75;1.83;;;;;;;4.05;79.18;98374.59;5016843;28;20075;-58
2022/04/05 07:50:10;;;;;;;9.52;4.10;;;;;;;3.30;86.94;98375.66;5014956;28;20129;-56
2022/04/05 07:52:36;;;;;;;6.28;2.03;;;;;;;3.08;90.06;98378.78;5021110;28;20060;-59
2022/04/05 07:55:03;;;;;;;5.40;2.10;;;;;;;2.93;92.56;98381.72;5021731;28;20038;-58
2022/04/05 07:57:28;;;;;;;4.53;2.00;;;;;;;2.96;93.99;98384.25;5039485;28;20033;-55
2022/04/05 07:59:54;;;;;;;7.80;3.78;;;;;;;3.02;95.99;98385.84;5035572;28;20064;-57
2022/04/05 08:02:19;;;;;;;11.57;5.05;;;;;;;3.35;95.09;98381.59;5026734;28;20048;-55
2022/04/05 08:04:45;;;;;;;20.75;8.98;;;;;;;3.37;96.77;98391.06;5015991;28;20057;-57
2022/04/05 08:07:10;;;;;;;10.85;5.18;;;;;;;3.52;93.72;98404.56;5022200;28;20171;-57
2022/04/05 08:09:36;;;;;;;6.05;2.90;;;;;;;3.86;93.04;98397.63;5035142;28;20472;-58
2022/04/05 08:12:02;;;;;;;10.85;4.28;;;;;;;4.39;89.73;98404.88;5021587;28;20097;-59
2022/04/05 08:14:29;;;;;;;14.27;5.07;;;;;;;4.82;87.81;98406.22;5018318;28;20092;-58
2022/04/05 08:16:58;;;;;;;11.07;4.70;;;;;;;4.64;87.09;98416.28;5017072;28;20149;-59
2022/04/05 08:19:24;;;;;;;9.20;3.80;;;;;;;4.57;87.34;98419.09;5022989;28;20033;-59
2022/04/05 08:21:50;;;;;;;8.98;4.45;;;;;;;4.39;87.38;98425.69;5019686;28;20033;-59
2022/04/05 08:24:17;;;;;;;11.15;5.35;;;;;;;4.39;88.07;98430.88;5034570;28;20037;-59
2022/04/05 08:26:43;;;;;;;14.20;6.38;;;;;;;4.40;88.22;98432.59;5034560;28;20120;-59
2022/04/05 08:29:08;;;;;;;11.27;4.28;;;;;;;4.61;87.63;98433.72;5018606;28;20121;-59
2022/04/05 08:31:34;;;;;;;8.32;3.38;;;;;;;4.70;86.97;98442.09;5018434;28;20040;-59
2022/04/05 08:33:59;;;;;;;7.40;3.45;;;;;;;4.90;86.87;98440.66;5024762;28;20077;-58
2022/04/05 08:36:25;;;;;;;5.88;3.00;;;;;;;5.29;85.43;98453.41;5021592;28;20072;-59
2022/04/05 08:38:50;;;;;;;9.77;5.07;;;;;;;5.67;84.41;98446.97;5028156;28;20053;-60
2022/04/05 08:41:20;;;;;;;14.75;8.13;;;;;;;5.39;83.16;98460.88;5025924;28;20052;-60
2022/04/05 08:43:48;;;;;;;9.60;5.15;;;;;;;4.99;83.63;98479.47;5020641;28;20022;-60
2022/04/05 08:46:15;;;;;;;16.55;7.65;;;;;;;4.85;86.06;98451.22;5022483;28;20034;-60
2022/04/05 08:48:40;;;;;;;8.50;4.13;;;;;;;4.73;86.81;98464.59;5020065;28;20033;-60
2022/04/05 08:51:06;;;;;;;1.95;1.05;;;;;;;4.68;87.22;98453.47;5020004;28;20078;-60
2022/04/05 08:53:33;;;;;;;4.55;2.50;;;;;;;4.78;86.30;98465.31;5014067;28;20037;-60
2022/04/05 08:56:02;;;;;;;5.57;2.95;;;;;;;4.75;85.95;98464.53;5014711;28;20358;-60
2022/04/05 08:58:27;;;;;;;8.88;4.90;;;;;;;4.77;85.52;98480.97;5021779;28;20033;-60
2022/04/05 09:00:53;;;;;;;10.43;4.20;;;;;;;4.93;85.01;98484.84;5034813;28;20120;-60
2022/04/05 09:03:19;;;;;;;14.88;4.43;;;;;;;5.24;83.22;98494.34;5032075;28;20068;-60
2022/04/05 09:05:44;;;;;;;21.40;4.60;;;;;;;5.68;82.47;98499.03;5014057;28;20088;-60
2022/04/05 09:08:23;;;;;;;19.65;4.95;;;;;;;5.85;80.09;98498.50;5015211;28;20561;-60
2022/04/05 09:11:08;;;;;;;22.67;5.50;;;;;;;6.29;78.90;98498.78;5015009;28;20385;-59
2022/04/05 09:13:34;;;;;;;18.20;5.47;;;;;;;6.97;76.78;98502.47;4997057;28;20072;-60
2022/04/05 09:16:04;;;;;;;15.77;4.13;;;;;;;7.22;76.27;98509.38;5013162;28;20093;-58
2022/04/05 09:18:40;;;;;;;14.10;4.95;;;;;;;7.23;74.86;98511.13;5014421;28;20034;-60
2022/04/05 09:21:10;;;;;;;9.10;3.42;;;;;;;7.19;73.93;98514.75;5013151;28;20038;-57
2022/04/05 09:23:41;;;;;;;12.60;4.35;;;;;;;7.07;73.06;98514.31;5013742;28;20039;-57
2022/04/05 09:26:09;;;;;;;13.73;4.28;;;;;;;7.01;73.10;98527.56;5011488;28;20046;-58
2022/04/05 09:28:37;;;;;;;17.55;5.05;;;;;;;7.02;73.53;98537.13;5011962;28;20223;-59
2022/04/05 09:31:06;;;;;;;17.15;5.28;;;;;;;7.04;73.73;98532.69;5012964;28;20030;-58
2022/04/05 09:33:34;;;;;;;7.18;2.88;;;;;;;6.81;70.59;98536.13;5013793;28;20042;-58
2022/04/05 09:36:09;;;;;;;11.05;2.65;;;;;;;6.49;70.86;98557.28;5013144;28;20033;-58
2022/04/05 09:38:36;;;;;;;4.55;1.77;;;;;;;6.33;68.53;98588.22;5014256;28;20065;-58
2022/04/05 09:41:22;;;;;;;8.13;2.50;;;;;;;6.30;68.90;98570.06;5025248;28;20045;-57
2022/04/05 09:43:55;;;;;;;4.85;2.53;;;;;;;6.00;64.79;98583.22;5033965;28;20078;-58
2022/04/05 09:46:23;;;;;;;5.53;1.02;;;;;;;5.43;66.66;98566.69;5033837;28;20451;-57
2022/04/05 09:49:03;;;;;;;7.68;2.45;;;;;;;5.77;67.72;98567.41;5053443;28;20055;-59
2022/04/05 09:51:44;;;;;;;13.52;4.90;;;;;;;6.14;67.34;98590.59;5054053;28;20083;-59
2022/04/05 09:54:30;;;;;;;16.42;5.60;;;;;;;6.32;63.52;98587.38;5045027;28;20036;-59
2022/04/05 09:57:01;;;;;;;14.98;5.68;;;;;;;6.71;65.12;98571.28;5033720;28;20366;-58
2022/04/05 09:59:37;;;;;;;9.77;3.80;;;;;;;7.22;61.97;98575.56;5032849;28;20057;-58
2022/04/05 10:02:16;;;;;;;13.05;4.47;;;;;;;7.64;64.02;98575.72;5032631;28;20045;-59
2022/04/05 10:05:00;;;;;;;7.57;2.58;;;;;;;7.83;60.67;98561.94;5032753;28;20040;-59
2022/04/05 10:07:27;;;;;;;8.93;3.70;;;;;;;7.90;61.00;98569.47;5032708;28;20039;-58
2022/04/05 10:09:53;;;;;;;10.20;3.40;;;;;;;8.05;61.16;98570.63;5017797;28;20036;-58
2022/04/05 10:12:20;;;;;;;9.77;3.22;;;;;;;8.26;60.03;98575.88;5026956;28;20384;-59
2022/04/05 10:14:45;;;;;;;9.38;2.95;;;;;;;8.52;59.78;98562.63;5022465;28;20074;-59
2022/04/05 10:17:12;;;;;;;11.75;4.07;;;;;;;8.74;58.73;98572.19;5020871;28;20029;-59
2022/04/05 10:19:44;;;;;;;10.38;3.65;;;;;;;8.74;57.71;98580.91;5017752;28;20045;-59
2022/04/05 10:22:11;;;;;;;10.55;3.03;;;;;;;8.62;56.88;98576.19;5024520;28;20032;-59
2022/04/05 10:24:39;;;;;;;5.25;2.03;;;;;;;8.53;56.47;98582.63;5022514;28;20048;-59
2022/04/05 10:27:06;;;;;;;6.32;2.10;;;;;;;8.47;54.82;98613.47;5021042;28;20421;-58
2022/04/05 10:29:33;;;;;;;6.03;1.90;;;;;;;8.34;53.87;98594.78;5029715;28;20541;-58
2022/04/05 10:32:07;;;;;;;6.30;2.17;;;;;;;8.37;53.51;98605.97;5022531;28;20037;-58
2022/04/05 10:34:40;;;;;;;7.93;2.80;;;;;;;8.49;51.78;98612.47;5015075;28;20034;-58
2022/04/05 10:37:16;;;;;;;2.10;0.80;;;;;;;8.20;49.84;98612.78;5029923;28;20042;-58
2022/04/05 10:39:43;;;;;;;2.92;1.10;;;;;;;8.57;52.31;98615.63;5019032;28;20045;-58
2022/04/05 10:42:08;;;;;;;2.50;0.70;;;;;;;8.34;51.22;98627.03;5032152;28;20409;-57
2022/04/05 10:44:35;;;;;;;7.50;1.88;;;;;;;8.45;51.63;98618.75;5023091;28;20029;-56
2022/04/05 10:47:04;;;;;;;6.72;2.95;;;;;;;8.38;51.69;98623.41;5025817;28;20037;-54
2022/04/05 10:49:47;;;;;;;2.88;1.20;;;;;;;8.45;51.00;98623.13;5030543;28;20029;-57
2022/04/05 10:52:17;;;;;;;3.13;1.30;;;;;;;8.37;49.59;98642.59;5018967;28;20053;-56
2022/04/05 10:54:49;;;;;;;6.00;2.10;;;;;;;8.88;51.07;98630.06;5032210;28;20037;-56
2022/04/05 10:57:30;;;;;;;3.78;1.35;;;;;;;9.35;46.51;98621.91;5031542;28;20025;-57
2022/04/05 11:00:01;;;;;;;1.88;0.57;;;;;;;9.18;47.17;98624.44;5017210;28;20045;-57
2022/04/05 11:02:37;;;;;;;1.92;0.57;;;;;;;9.01;47.25;98619.91;5030440;28;20029;-57
2022/04/05 11:05:14;;;;;;;2.60;1.13;;;;;;;8.75;44.71;98639.34;5025865;28;20033;-58
2022/04/05 11:07:52;;;;;;;6.82;4.20;;;;;;;8.58;46.16;98640.91;5026647;28;20429;-55
2022/04/05 11:10:41;;;;;;;3.80;1.75;;;;;;;8.51;41.82;98642.06;5032728;28;20034;-56
2022/04/05 11:13:21;;;;;;;6.22;2.95;;;;;;;8.64;42.86;98656.34;5028806;28;20055;-58
2022/04/05 11:15:50;;;;;;;6.80;3.45;;;;;;;8.38;40.93;98701.91;5028377;28;20457;-59
2022/04/05 11:18:21;;;;;;;7.20;2.50;;;;;;;8.73;42.64;98655.09;5014521;28;20129;-57
2022/04/05 11:20:49;;;;;;;9.50;3.10;;;;;;;8.77;42.35;98682.88;5030723;28;20120;-55
2022/04/05 11:23:18;;;;;;;5.43;2.40;;;;;;;8.84;41.93;98657.28;5030229;28;20033;-57
2022/04/05 11:25:44;;;;;;;6.90;2.90;;;;;;;8.95;41.92;98664.72;5032694;28;20045;-54
2022/04/05 11:28:21;;;;;;;8.85;3.13;;;;;;;9.09;41.52;98663.19;5028729;28;20038;-58
2022/04/05 11:30:49;;;;;;;5.28;1.90;;;;;;;9.31;40.35;98678.84;5027707;28;20025;-56
2022/04/05 11:33:30;;;;;;;24.45;10.60;;;;;;;9.42;37.87;98681.00;5016683;28;20485;-60
2022/04/05 11:35:58;;;;;;;4.30;1.23;;;;;;;9.40;38.52;98664.47;5029055;28;20046;-56
2022/04/05 11:38:27;;;;;;;6.50;1.60;;;;;;;9.61;40.02;98676.66;5025192;28;20052;-56
2022/04/05 11:41:03;;;;;;;6.07;2.25;;;;;;;9.71;38.49;98686.72;5029529;28;20485;-59